Time;durP1;ratioP1;P1;durP2;ratioP2;P2;SDS_P1;SDS_P2;PMS_P1;PMS_P2;Temp;Humidity;BMP_temperature;BMP_pressure;BME280_temperature;BME280_humidity;BME280_pressure;Samples;Min_cycle;Max_cycle;Signal;HPM_P1;HPM_P2
2021/09/03 00:01:38;;;;;;;14.03;9.90;;;11.20;99.90;;;;;;5074252;28;20248;-86
2021/09/03 00:04:04;;;;;;;16.50;10.50;;;11.30;99.90;;;;;;5074496;28;20666;-87
2021/09/03 00:06:30;;;;;;;14.60;10.27;;;11.30;99.90;;;;;;5073041;28;20657;-85
2021/09/03 00:08:58;;;;;;;14.73;11.10;;;11.30;99.90;;;;;;5073313;28;20657;-85
2021/09/03 00:11:24;;;;;;;15.47;11.27;;;11.20;99.90;;;;;;5074312;28;20228;-86
2021/09/03 00:13:50;;;;;;;17.77;11.90;;;11.10;99.90;;;;;;5073180;28;20423;-86
2021/09/03 00:16:18;;;;;;;14.10;9.80;;;11.20;99.90;;;;;;5074448;28;20181;-86
2021/09/03 00:18:47;;;;;;;14.30;10.10;;;11.20;99.90;;;;;;5073131;28;20645;-86
2021/09/03 00:21:13;;;;;;;13.87;10.60;;;11.20;99.90;;;;;;5073902;28;20747;-86
2021/09/03 00:23:39;;;;;;;13.93;11.17;;;11.10;99.90;;;;;;5074128;28;20508;-88
2021/09/03 00:26:04;;;;;;;17.17;11.13;;;11.10;99.90;;;;;;5074249;28;20434;-87
2021/09/03 00:28:30;;;;;;;15.67;10.40;;;11.20;99.90;;;;;;5074143;28;20640;-86
2021/09/03 00:30:55;;;;;;;16.90;12.47;;;11.10;99.90;;;;;;5074201;28;20271;-87
2021/09/03 00:33:21;;;;;;;11.30;9.60;;;11.00;99.90;;;;;;5074077;28;20209;-87
2021/09/03 00:35:47;;;;;;;15.73;10.47;;;11.00;99.90;;;;;;5072479;28;20227;-87
2021/09/03 00:38:12;;;;;;;13.77;9.70;;;11.00;99.90;;;;;;5072740;28;20212;-86
2021/09/03 00:40:38;;;;;;;11.93;8.17;;;10.90;99.90;;;;;;5072702;28;20165;-87
2021/09/03 00:43:04;;;;;;;12.83;9.87;;;10.90;99.90;;;;;;5072630;28;20216;-86
2021/09/03 00:45:29;;;;;;;14.37;10.43;;;10.90;99.90;;;;;;5073837;28;20239;-87
2021/09/03 00:47:55;;;;;;;14.13;9.77;;;10.80;99.90;;;;;;5072501;28;20177;-86
2021/09/03 00:50:21;;;;;;;13.90;9.73;;;10.80;99.90;;;;;;5073689;28;20759;-86
2021/09/03 00:52:47;;;;;;;11.83;9.47;;;10.70;99.90;;;;;;5072092;28;20259;-87
2021/09/03 00:55:13;;;;;;;17.03;10.50;;;10.70;99.90;;;;;;5072327;28;20517;-87
2021/09/03 00:57:38;;;;;;;15.83;9.50;;;10.70;99.90;;;;;;5072538;28;20172;-87
2021/09/03 01:00:05;;;;;;;12.33;9.00;;;10.70;99.90;;;;;;5071773;28;20181;-86
2021/09/03 01:02:30;;;;;;;13.50;8.73;;;10.70;99.90;;;;;;5072186;28;20165;-87
2021/09/03 01:04:56;;;;;;;14.63;8.67;;;10.80;99.90;;;;;;5073328;28;20509;-87
2021/09/03 01:07:22;;;;;;;16.60;9.80;;;10.70;99.90;;;;;;5073036;28;20265;-88
2021/09/03 01:09:48;;;;;;;12.10;9.03;;;10.60;99.90;;;;;;5072131;28;20206;-86
2021/09/03 01:12:15;;;;;;;13.03;8.17;;;10.60;99.90;;;;;;5071965;28;20552;-87
2021/09/03 01:14:41;;;;;;;11.87;9.70;;;10.50;99.90;;;;;;5072050;28;20632;-88
2021/09/03 01:17:06;;;;;;;12.63;10.00;;;10.60;99.90;;;;;;5071866;28;20417;-87
2021/09/03 01:19:32;;;;;;;11.93;8.80;;;10.60;99.90;;;;;;5071806;28;20295;-87
2021/09/03 01:21:58;;;;;;;16.63;9.20;;;10.50;99.90;;;;;;5071627;28;20267;-87
2021/09/03 01:24:24;;;;;;;12.63;9.67;;;10.50;99.90;;;;;;5073148;28;20455;-87
2021/09/03 01:26:49;;;;;;;14.30;9.77;;;10.50;99.90;;;;;;5071879;28;20195;-86
2021/09/03 01:29:15;;;;;;;14.53;10.37;;;10.50;99.90;;;;;;5071886;28;20191;-87
2021/09/03 01:31:41;;;;;;;11.53;9.00;;;10.40;99.90;;;;;;5072947;28;20204;-86
2021/09/03 01:34:07;;;;;;;17.67;9.33;;;10.40;99.90;;;;;;5071817;28;20262;-87
2021/09/03 01:36:32;;;;;;;13.73;9.93;;;10.50;99.90;;;;;;5072797;28;20654;-88
2021/09/03 01:38:59;;;;;;;15.00;9.10;;;10.40;99.90;;;;;;5071742;28;20264;-87
2021/09/03 01:41:25;;;;;;;15.37;9.20;;;10.30;99.90;;;;;;5071803;28;20271;-86
2021/09/03 01:43:51;;;;;;;11.53;7.57;;;10.30;99.90;;;;;;5071588;28;20514;-86
2021/09/03 01:46:17;;;;;;;11.23;9.27;;;10.20;99.90;;;;;;5071723;28;20180;-87
2021/09/03 01:48:44;;;;;;;11.20;9.37;;;10.30;99.90;;;;;;5071623;28;20477;-87
2021/09/03 01:51:09;;;;;;;10.33;8.57;;;10.20;99.90;;;;;;5072538;28;20434;-87
2021/09/03 01:53:38;;;;;;;10.37;7.77;;;10.20;99.90;;;;;;5072748;28;20407;-85
2021/09/03 01:56:06;;;;;;;12.13;8.20;;;10.30;99.90;;;;;;5071555;28;20176;-86
2021/09/03 01:58:31;;;;;;;12.93;9.00;;;10.10;99.90;;;;;;5072735;28;20472;-86
2021/09/03 02:00:57;;;;;;;14.93;8.50;;;10.20;99.90;;;;;;5071423;28;20423;-86
2021/09/03 02:03:23;;;;;;;11.20;7.83;;;10.10;99.90;;;;;;5071065;28;20273;-85
2021/09/03 02:05:48;;;;;;;11.77;7.77;;;10.00;99.90;;;;;;5072267;28;20212;-87
2021/09/03 02:08:14;;;;;;;8.80;6.30;;;10.10;99.90;;;;;;5072584;28;20180;-86
2021/09/03 02:10:39;;;;;;;11.17;7.90;;;10.10;99.90;;;;;;5072029;28;20251;-86
2021/09/03 02:13:05;;;;;;;12.40;8.60;;;10.10;99.90;;;;;;5075452;28;20190;-85
2021/09/03 02:15:31;;;;;;;11.77;8.50;;;10.10;99.90;;;;;;5075446;28;20326;-85
2021/09/03 02:17:56;;;;;;;11.40;7.43;;;10.10;99.90;;;;;;5076651;28;20176;-86
2021/09/03 02:20:22;;;;;;;12.90;8.03;;;10.10;99.90;;;;;;5076225;28;20196;-85
2021/09/03 02:22:48;;;;;;;11.33;7.40;;;10.10;99.90;;;;;;5076532;28;20252;-85
2021/09/03 02:25:13;;;;;;;11.47;8.67;;;10.20;99.90;;;;;;5076384;28;20208;-86
2021/09/03 02:27:39;;;;;;;11.17;6.30;;;10.20;99.90;;;;;;5075138;28;20584;-86
2021/09/03 02:30:06;;;;;;;10.27;7.03;;;10.20;99.90;;;;;;5076473;28;20243;-86
2021/09/03 02:32:32;;;;;;;10.17;6.30;;;10.10;99.90;;;;;;5075096;28;20194;-85
2021/09/03 02:34:57;;;;;;;9.23;6.83;;;10.10;99.90;;;;;;5075026;28;20430;-85
2021/09/03 02:37:23;;;;;;;9.83;6.20;;;10.10;99.90;;;;;;5075859;28;20586;-86
2021/09/03 02:39:49;;;;;;;12.00;7.07;;;10.10;99.90;;;;;;5076015;28;20218;-86
2021/09/03 02:42:14;;;;;;;11.43;6.97;;;10.00;99.90;;;;;;5076206;28;20231;-85
2021/09/03 02:44:40;;;;;;;8.50;6.43;;;10.00;99.90;;;;;;5076049;28;20222;-86
2021/09/03 02:47:06;;;;;;;9.07;6.97;;;10.00;99.90;;;;;;5074767;28;20177;-85
2021/09/03 02:49:31;;;;;;;10.20;6.37;;;9.90;99.90;;;;;;5076251;28;20215;-87
2021/09/03 02:51:57;;;;;;;8.60;6.10;;;9.90;99.90;;;;;;5075604;28;20164;-85
2021/09/03 02:54:23;;;;;;;10.80;6.20;;;9.90;99.90;;;;;;5074688;28;20545;-88
2021/09/03 02:56:48;;;;;;;10.37;7.07;;;9.80;99.90;;;;;;5076142;28;20225;-87
2021/09/03 02:59:14;;;;;;;13.53;7.30;;;9.80;99.90;;;;;;5075142;28;20641;-88
2021/09/03 03:01:40;;;;;;;9.10;6.80;;;9.80;99.90;;;;;;5075155;28;20422;-87
2021/09/03 03:04:05;;;;;;;10.20;6.87;;;9.70;99.90;;;;;;5076439;28;20257;-86
2021/09/03 03:06:31;;;;;;;10.80;6.77;;;9.70;99.90;;;;;;5074897;28;20190;-89
2021/09/03 03:08:56;;;;;;;9.30;7.30;;;9.60;99.90;;;;;;5075121;28;20186;-88
2021/09/03 03:11:22;;;;;;;13.37;7.00;;;9.70;99.90;;;;;;5074811;28;20224;-88
2021/09/03 03:13:49;;;;;;;11.07;7.97;;;9.60;99.90;;;;;;5075025;28;20165;-89
2021/09/03 03:16:15;;;;;;;11.77;7.83;;;9.70;99.90;;;;;;5076308;28;20233;-89
2021/09/03 03:18:42;;;;;;;9.30;6.00;;;9.60;99.90;;;;;;5076069;28;20934;-89
2021/09/03 03:21:08;;;;;;;9.00;6.70;;;9.70;99.90;;;;;;5074065;28;20481;-88
2021/09/03 03:23:34;;;;;;;10.50;6.97;;;9.70;99.90;;;;;;5074735;28;20416;-88
2021/09/03 03:25:59;;;;;;;12.10;8.10;;;9.80;99.90;;;;;;5074836;28;20843;-88
2021/09/03 03:28:25;;;;;;;11.13;7.20;;;9.90;99.90;;;;;;5074835;28;20930;-89
2021/09/03 03:30:50;;;;;;;10.40;7.10;;;10.00;99.90;;;;;;5074686;28;20195;-89
2021/09/03 03:33:16;;;;;;;13.40;7.73;;;10.10;99.90;;;;;;5074633;28;20233;-89
2021/09/03 03:35:42;;;;;;;12.30;7.50;;;10.20;99.90;;;;;;5074224;28;20537;-89
2021/09/03 03:38:07;;;;;;;15.10;8.93;;;10.30;99.90;;;;;;5074656;28;20625;-88
2021/09/03 03:40:33;;;;;;;14.47;9.07;;;10.40;99.90;;;;;;5074741;28;20180;-89
2021/09/03 03:42:59;;;;;;;11.40;7.77;;;10.60;99.90;;;;;;5074367;28;20187;-89
2021/09/03 03:45:25;;;;;;;12.93;7.37;;;10.70;99.90;;;;;;5074294;28;20305;-89
2021/09/03 03:47:50;;;;;;;11.90;8.50;;;10.80;99.90;;;;;;5075635;28;20173;-89
2021/09/03 03:50:16;;;;;;;11.60;7.13;;;10.90;99.90;;;;;;5073983;28;20522;-89
2021/09/03 03:52:42;;;;;;;11.13;7.07;;;11.00;99.90;;;;;;5075522;28;20192;-88
2021/09/03 03:55:09;;;;;;;10.27;7.00;;;11.10;99.90;;;;;;5074352;28;20501;-89
2021/09/03 03:57:35;;;;;;;13.20;7.50;;;11.10;99.90;;;;;;5074463;28;20170;-89
2021/09/03 04:00:00;;;;;;;13.50;9.50;;;11.20;99.90;;;;;;5074236;28;20424;-88
2021/09/03 04:02:26;;;;;;;12.93;8.00;;;11.30;99.90;;;;;;5075161;28;20749;-87
2021/09/03 04:04:51;;;;;;;11.23;6.97;;;11.30;99.90;;;;;;5073406;28;20215;-88
2021/09/03 04:07:17;;;;;;;12.00;7.57;;;11.40;99.90;;;;;;5073722;28;20169;-88
2021/09/03 04:09:43;;;;;;;13.70;8.53;;;11.50;99.90;;;;;;5074137;28;20221;-88
2021/09/03 04:12:09;;;;;;;14.00;9.03;;;11.50;99.90;;;;;;5073435;28;20221;-88
2021/09/03 04:14:35;;;;;;;21.80;10.20;;;11.60;99.90;;;;;;5073423;28;20169;-89
2021/09/03 04:17:01;;;;;;;14.80;8.30;;;11.60;99.90;;;;;;5074673;28;20415;-89
2021/09/03 04:19:26;;;;;;;16.07;9.73;;;11.70;99.90;;;;;;5074976;28;20908;-87
2021/09/03 04:21:52;;;;;;;13.97;9.67;;;11.70;99.90;;;;;;5079282;28;20170;-89
2021/09/03 04:24:17;;;;;;;16.13;8.60;;;11.80;99.90;;;;;;5099282;28;20218;-88
2021/09/03 04:26:43;;;;;;;13.80;9.00;;;11.70;99.90;;;;;;5099085;28;20200;-87
2021/09/03 04:29:09;;;;;;;14.50;8.10;;;11.70;99.90;;;;;;5099700;28;20178;-88
2021/09/03 04:31:35;;;;;;;15.93;8.23;;;11.90;99.90;;;;;;5099640;28;20162;-87
2021/09/03 04:34:00;;;;;;;15.77;9.23;;;11.80;99.90;;;;;;5097956;28;20236;-87
2021/09/03 04:36:26;;;;;;;14.80;8.17;;;11.80;99.90;;;;;;5086807;28;20786;-88
2021/09/03 04:38:51;;;;;;;13.10;8.63;;;11.80;99.90;;;;;;5073675;28;20181;-88
2021/09/03 04:41:17;;;;;;;17.10;9.90;;;11.90;99.90;;;;;;5075068;28;20176;-87
2021/09/03 04:43:43;;;;;;;16.37;8.63;;;12.00;99.90;;;;;;5073367;28;20178;-88
2021/09/03 04:46:09;;;;;;;16.80;8.77;;;12.00;99.90;;;;;;5073096;28;20194;-89
2021/09/03 04:48:35;;;;;;;14.57;7.87;;;12.00;99.90;;;;;;5073143;28;20182;-88
2021/09/03 04:51:00;;;;;;;13.37;8.13;;;12.10;99.90;;;;;;5072553;28;20193;-88
2021/09/03 04:53:26;;;;;;;14.27;7.87;;;12.10;99.90;;;;;;5072730;28;20424;-88
2021/09/03 04:55:52;;;;;;;16.07;8.93;;;12.10;99.90;;;;;;5073619;28;20188;-88
2021/09/03 04:58:18;;;;;;;14.20;8.80;;;12.10;99.90;;;;;;5074319;28;20227;-88
2021/09/03 05:00:44;;;;;;;12.80;8.80;;;12.10;99.90;;;;;;5074410;28;20424;-88
2021/09/03 05:03:10;;;;;;;12.97;8.20;;;12.20;99.90;;;;;;5073170;28;20180;-88
2021/09/03 05:05:35;;;;;;;12.10;8.37;;;12.20;99.90;;;;;;5073064;28;20224;-88
2021/09/03 05:08:01;;;;;;;17.33;8.97;;;12.30;99.90;;;;;;5075704;28;20170;-88
2021/09/03 05:10:26;;;;;;;12.37;9.20;;;12.30;99.90;;;;;;5072777;28;20210;-88
2021/09/03 05:12:52;;;;;;;12.00;9.13;;;12.30;99.90;;;;;;5073814;28;20309;-89
2021/09/03 05:15:18;;;;;;;14.83;9.77;;;12.40;99.90;;;;;;5072603;28;20619;-88
2021/09/03 05:17:49;;;;;;;14.93;9.20;;;12.40;99.90;;;;;;5072653;28;20266;-88
2021/09/03 05:20:15;;;;;;;14.00;9.83;;;12.50;99.90;;;;;;5070495;28;20477;-89
2021/09/03 05:22:41;;;;;;;16.27;11.07;;;12.60;99.90;;;;;;5072185;28;20425;-88
2021/09/03 05:25:09;;;;;;;16.17;10.20;;;12.60;99.90;;;;;;5071111;28;20494;-88
2021/09/03 05:27:36;;;;;;;14.83;10.77;;;12.60;99.90;;;;;;5071924;28;20178;-87
2021/09/03 05:30:03;;;;;;;13.03;9.27;;;12.50;99.90;;;;;;5071053;28;20432;-88
2021/09/03 05:32:29;;;;;;;19.43;10.60;;;12.60;99.90;;;;;;5072009;28;20823;-87
2021/09/03 05:34:54;;;;;;;16.87;10.37;;;12.70;99.90;;;;;;5071836;28;20421;-88
2021/09/03 05:37:20;;;;;;;13.63;10.30;;;12.90;99.90;;;;;;5073315;28;20176;-87
2021/09/03 05:39:46;;;;;;;18.60;10.53;;;12.90;99.90;;;;;;5073426;28;20175;-89
2021/09/03 05:42:12;;;;;;;16.17;10.17;;;12.90;99.90;;;;;;5073016;28;20171;-88
2021/09/03 05:44:37;;;;;;;18.53;10.73;;;13.00;99.90;;;;;;5073012;28;20294;-88
2021/09/03 05:47:03;;;;;;;18.17;11.43;;;13.00;99.90;;;;;;5071950;28;20898;-88
2021/09/03 05:49:29;;;;;;;15.50;11.20;;;13.10;99.90;;;;;;5071680;28;20464;-88
2021/09/03 05:51:54;;;;;;;17.37;12.10;;;13.10;99.90;;;;;;5072302;28;20635;-88
2021/09/03 05:54:20;;;;;;;18.33;11.23;;;13.20;99.90;;;;;;5073861;28;20249;-88
2021/09/03 05:56:46;;;;;;;16.93;11.40;;;13.20;99.90;;;;;;5071730;28;20658;-88
2021/09/03 05:59:11;;;;;;;19.33;10.80;;;13.30;99.90;;;;;;5073051;28;20168;-88
2021/09/03 06:01:37;;;;;;;17.57;12.20;;;13.40;99.90;;;;;;5073170;28;20224;-90
2021/09/03 06:04:02;;;;;;;18.70;12.30;;;13.40;99.90;;;;;;5071535;28;20175;-88
2021/09/03 06:06:28;;;;;;;18.00;11.57;;;13.50;99.90;;;;;;5071289;28;20188;-89
2021/09/03 06:08:54;;;;;;;18.80;12.03;;;13.60;99.90;;;;;;5071892;28;20181;-88
2021/09/03 06:11:25;;;;;;;23.50;12.83;;;13.80;99.90;;;;;;5071442;28;20318;-88
2021/09/03 06:13:55;;;;;;;19.80;12.87;;;13.90;99.90;;;;;;5072679;28;20165;-88
2021/09/03 06:16:22;;;;;;;18.60;10.50;;;14.00;99.90;;;;;;5072694;28;20430;-89
2021/09/03 06:18:48;;;;;;;19.47;12.20;;;14.00;99.90;;;;;;5071626;28;20494;-88
2021/09/03 06:21:14;;;;;;;20.70;12.47;;;14.30;99.90;;;;;;5071930;28;20457;-89
2021/09/03 06:23:40;;;;;;;23.17;12.70;;;14.20;99.90;;;;;;5071948;28;20425;-89
2021/09/03 06:26:06;;;;;;;19.30;11.37;;;14.40;99.90;;;;;;5071712;28;20478;-89
2021/09/03 06:28:31;;;;;;;19.73;11.80;;;14.50;99.90;;;;;;5072012;28;20605;-89
2021/09/03 06:30:57;;;;;;;23.50;11.67;;;14.50;99.90;;;;;;5071868;28;20207;-88
2021/09/03 06:33:23;;;;;;;22.93;11.60;;;14.50;99.90;;;;;;5071539;28;20640;-90
2021/09/03 06:35:48;;;;;;;17.43;10.70;;;14.70;99.90;;;;;;5072884;28;20567;-89
2021/09/03 06:38:14;;;;;;;25.27;12.63;;;14.70;99.90;;;;;;5073249;28;20252;-88
2021/09/03 06:40:40;;;;;;;21.03;11.17;;;14.90;99.90;;;;;;5072960;28;20244;-90
2021/09/03 06:43:05;;;;;;;16.50;10.10;;;14.90;99.90;;;;;;5072998;28;20173;-90
2021/09/03 06:45:31;;;;;;;18.77;9.50;;;14.90;99.90;;;;;;5071498;28;20217;-90
2021/09/03 06:47:57;;;;;;;21.20;10.63;;;15.00;99.90;;;;;;5071925;28;20174;-90
2021/09/03 06:50:22;;;;;;;22.97;15.10;;;15.00;99.90;;;;;;5072557;28;20173;-87
2021/09/03 06:52:48;;;;;;;21.03;11.60;;;16.40;99.90;;;;;;5071470;28;20675;-89
2021/09/03 06:55:15;;;;;;;29.77;11.57;;;16.00;99.90;;;;;;5071410;28;20179;-88
2021/09/03 06:57:41;;;;;;;18.83;9.90;;;15.60;99.90;;;;;;5074518;28;20408;-87
2021/09/03 07:00:07;;;;;;;20.43;9.73;;;15.50;99.90;;;;;;5075014;28;20780;-88
2021/09/03 07:02:33;;;;;;;15.20;8.67;;;15.40;99.90;;;;;;5076116;28;20219;-88
2021/09/03 07:04:59;;;;;;;22.27;10.10;;;15.40;99.90;;;;;;5075548;28;20862;-89
2021/09/03 07:07:25;;;;;;;18.10;9.50;;;15.40;99.90;;;;;;5076047;28;20605;-88
2021/09/03 07:09:51;;;;;;;16.37;8.13;;;15.40;99.90;;;;;;5076054;28;20645;-88
2021/09/03 07:12:17;;;;;;;13.07;9.13;;;15.40;99.90;;;;;;5074523;28;20577;-88
2021/09/03 07:14:44;;;;;;;17.07;9.53;;;15.40;99.90;;;;;;5074660;28;20451;-89
2021/09/03 07:17:09;;;;;;;14.60;8.77;;;15.50;99.90;;;;;;5074579;28;20966;-86
2021/09/03 07:19:35;;;;;;;17.27;9.50;;;15.50;99.90;;;;;;5075426;28;20442;-89
2021/09/03 07:22:02;;;;;;;19.43;9.93;;;15.60;99.90;;;;;;5075690;28;20181;-87
2021/09/03 07:24:28;;;;;;;14.70;8.83;;;15.70;99.90;;;;;;5074285;28;20205;-87
2021/09/03 07:26:53;;;;;;;15.93;10.03;;;15.80;99.90;;;;;;5075573;28;20420;-87
2021/09/03 07:29:19;;;;;;;21.20;10.80;;;15.80;99.90;;;;;;5075733;28;20554;-88
2021/09/03 07:31:44;;;;;;;17.87;9.80;;;16.40;99.90;;;;;;5074435;28;20193;-88
2021/09/03 07:34:10;;;;;;;23.13;10.30;;;16.20;99.90;;;;;;5075336;28;20546;-88
2021/09/03 07:36:36;;;;;;;17.57;8.10;;;16.70;99.90;;;;;;5073863;28;20268;-87
2021/09/03 07:39:02;;;;;;;18.03;9.40;;;16.60;99.90;;;;;;5074173;28;20262;-88
2021/09/03 07:41:28;;;;;;;19.50;9.23;;;16.60;99.90;;;;;;5074118;28;20178;-87
2021/09/03 07:43:53;;;;;;;19.53;8.20;;;16.80;99.90;;;;;;5075083;28;20425;-89
2021/09/03 07:46:19;;;;;;;19.33;9.50;;;16.90;99.90;;;;;;5075217;28;20189;-89
2021/09/03 07:48:45;;;;;;;16.53;10.13;;;17.70;99.90;;;;;;5073964;28;20175;-87
2021/09/03 07:51:10;;;;;;;18.13;9.53;;;17.10;99.90;;;;;;5074627;28;20541;-85
2021/09/03 07:53:36;;;;;;;14.07;8.97;;;17.00;99.90;;;;;;5075552;28;20210;-88
2021/09/03 07:56:03;;;;;;;19.47;10.23;;;16.90;99.90;;;;;;5076437;28;20235;-87
2021/09/03 07:58:29;;;;;;;16.97;9.73;;;17.40;99.90;;;;;;5074290;28;20201;-91
2021/09/03 08:00:55;;;;;;;14.03;10.47;;;19.40;99.90;;;;;;5075061;28;20454;-87
2021/09/03 08:03:20;;;;;;;14.43;9.90;;;18.90;99.90;;;;;;5074965;28;20179;-88
2021/09/03 08:05:46;;;;;;;21.47;9.60;;;18.10;99.90;;;;;;5074328;28;20678;-87
2021/09/03 08:08:11;;;;;;;20.43;9.93;;;17.70;99.90;;;;;;5073478;28;20170;-87
2021/09/03 08:10:37;;;;;;;14.93;9.60;;;17.60;99.90;;;;;;5073565;28;20234;-88
2021/09/03 08:13:05;;;;;;;12.70;9.33;;;18.30;99.90;;;;;;5074857;28;20172;-87
2021/09/03 08:15:31;;;;;;;15.83;9.50;;;18.90;99.90;;;;;;5073291;28;20912;-87
2021/09/03 08:17:58;;;;;;;10.33;8.57;;;20.80;99.90;;;;;;5074776;28;20496;-87
2021/09/03 08:20:24;;;;;;;11.03;7.57;;;22.40;99.90;;;;;;5072891;28;20426;-88
2021/09/03 08:22:51;;;;;;;15.20;8.33;;;24.50;99.90;;;;;;5074493;28;20427;-88
2021/09/03 08:25:18;;;;;;;13.73;8.90;;;24.60;99.90;;;;;;5072994;28;20561;-88
2021/09/03 08:27:44;;;;;;;10.73;9.00;;;24.40;99.90;;;;;;5074393;28;20426;-89
2021/09/03 08:30:10;;;;;;;12.37;7.87;;;23.10;99.90;;;;;;5074330;28;20926;-89
2021/09/03 08:32:35;;;;;;;13.73;7.97;;;21.40;99.90;;;;;;5073099;28;20513;-89
2021/09/03 08:35:02;;;;;;;14.37;8.57;;;20.30;99.90;;;;;;5073941;28;20519;-88
2021/09/03 08:37:27;;;;;;;13.03;10.53;;;19.40;99.90;;;;;;5072953;28;20229;-89
2021/09/03 08:39:54;;;;;;;16.13;9.40;;;19.10;99.90;;;;;;5074411;28;20517;-93
2021/09/03 08:42:22;;;;;;;17.60;12.50;;;20.00;99.90;;;;;;5074238;28;20626;-90
2021/09/03 08:44:51;;;;;;;14.80;10.50;;;21.80;99.90;;;;;;5073015;28;20511;-89
2021/09/03 08:47:20;;;;;;;14.07;11.13;;;21.90;99.90;;;;;;5072758;28;20414;-89
2021/09/03 08:49:46;;;;;;;20.70;11.70;;;20.90;99.90;;;;;;5072090;28;20429;-88
2021/09/03 08:52:12;;;;;;;13.07;9.97;;;20.10;99.90;;;;;;5074156;28;20464;-89
2021/09/03 08:54:37;;;;;;;16.20;12.20;;;23.40;99.90;;;;;;5072722;28;20425;-90
2021/09/03 08:57:05;;;;;;;14.27;10.20;;;23.30;99.90;;;;;;5072650;28;20176;-90
2021/09/03 08:59:31;;;;;;;14.13;8.63;;;21.70;99.90;;;;;;5072483;28;20187;-88
2021/09/03 09:02:10;;;;;;;11.90;8.33;;;20.90;99.90;;;;;;5065133;28;20444;-90
2021/09/03 09:04:40;;;;;;;10.90;8.20;;;20.10;99.90;;;;;;5070452;28;20460;-90
2021/09/03 09:07:06;;;;;;;14.97;9.10;;;22.80;99.90;;;;;;5073620;28;20421;-89
2021/09/03 09:09:43;;;;;;;8.83;7.87;;;22.10;99.90;;;;;;5073534;28;20938;-89
2021/09/03 09:12:14;;;;;;;11.97;9.03;;;22.10;99.90;;;;;;5073272;28;20472;-88
2021/09/03 09:15:00;;;;;;;13.20;9.70;;;23.90;99.90;;;;;;5073205;28;20418;-90
2021/09/03 09:17:37;;;;;;;14.50;9.93;;;25.50;99.90;;;;;;5072806;28;20453;-88
2021/09/03 09:20:09;;;;;;;16.03;11.17;;;25.40;99.90;;;;;;5066790;28;21060;-92
2021/09/03 09:22:59;;;;;;;13.10;10.30;;;25.80;97.80;;;;;;5061539;28;20460;-91
2021/09/03 09:25:30;;;;;;;13.30;9.93;;;25.90;98.30;;;;;;5050849;28;20479;-88
2021/09/03 09:28:17;;;;;;;12.73;11.43;;;24.50;99.90;;;;;;5053221;28;20419;-90
2021/09/03 09:30:43;;;;;;;15.60;10.67;;;22.60;99.90;;;;;;5053349;28;20507;-89
2021/09/03 09:33:20;;;;;;;14.57;11.60;;;22.90;99.90;;;;;;5053559;28;20447;-89
2021/09/03 09:35:47;;;;;;;13.00;10.40;;;22.30;99.90;;;;;;5053051;28;20765;-89
2021/09/03 09:38:14;;;;;;;11.53;9.00;;;24.90;99.90;;;;;;5051916;28;20854;-89
2021/09/03 09:40:49;;;;;;;14.37;8.90;;;26.00;99.90;;;;;;5053174;28;20507;-89
2021/09/03 09:43:25;;;;;;;12.17;9.00;;;25.40;99.90;;;;;;5052284;28;20419;-91
2021/09/03 09:46:15;;;;;;;12.67;8.80;;;26.10;97.50;;;;;;5052802;28;20927;-88
2021/09/03 09:48:50;;;;;;;9.93;8.00;;;25.10;99.90;;;;;;5053689;28;20418;-91
2021/09/03 09:51:22;;;;;;;11.27;8.70;;;25.20;99.50;;;;;;5052724;28;20407;-86
2021/09/03 09:54:08;;;;;;;9.53;8.00;;;26.00;96.80;;;;;;5053911;28;20419;-86
2021/09/03 09:56:39;;;;;;;14.07;8.50;;;23.70;99.90;;;;;;5052947;28;20404;-88
2021/09/03 09:59:06;;;;;;;13.80;9.03;;;23.70;99.90;;;;;;5053331;28;20407;-87
2021/09/03 10:01:35;;;;;;;14.17;10.10;;;24.90;99.90;;;;;;5054290;28;20412;-86
2021/09/03 10:04:10;;;;;;;11.50;9.77;;;26.10;98.90;;;;;;5052246;28;20435;-86
2021/09/03 10:06:38;;;;;;;11.03;9.90;;;26.30;98.30;;;;;;5052435;28;20835;-87
2021/09/03 10:09:07;;;;;;;13.13;10.70;;;26.60;97.60;;;;;;5052828;28;20447;-87
2021/09/03 10:11:34;;;;;;;12.70;10.10;;;26.40;95.70;;;;;;5052610;28;20550;-86
2021/09/03 10:14:00;;;;;;;10.83;7.30;;;26.40;97.20;;;;;;5051421;28;20409;-87
2021/09/03 10:16:26;;;;;;;11.90;7.03;;;26.80;95.80;;;;;;5051169;28;20614;-87
2021/09/03 10:18:55;;;;;;;9.40;6.57;;;26.60;95.80;;;;;;5050953;28;20696;-87
2021/09/03 10:21:23;;;;;;;10.50;5.73;;;26.80;95.60;;;;;;5052514;28;20169;-87
2021/09/03 10:23:53;;;;;;;8.70;6.63;;;26.90;94.80;;;;;;5052587;28;20412;-87
2021/09/03 10:26:30;;;;;;;11.17;6.77;;;26.80;96.30;;;;;;5052547;28;20424;-87
2021/09/03 10:29:22;;;;;;;8.80;6.07;;;26.70;96.50;;;;;;5051615;28;20427;-91
2021/09/03 10:32:06;;;;;;;9.63;6.70;;;26.70;95.90;;;;;;5054317;28;20454;-88
2021/09/03 10:34:41;;;;;;;10.93;7.27;;;26.10;97.00;;;;;;5063082;28;20442;-87
2021/09/03 10:37:15;;;;;;;9.50;6.17;;;25.70;98.30;;;;;;5065229;28;20958;-87
2021/09/03 10:40:05;;;;;;;10.30;6.17;;;25.90;99.90;;;;;;5065675;28;21036;-89
2021/09/03 10:42:36;;;;;;;7.83;5.43;;;26.00;99.50;;;;;;5069957;28;20408;-87
2021/09/03 10:45:02;;;;;;;10.20;6.20;;;25.70;99.80;;;;;;5069756;28;20502;-86
2021/09/03 10:47:41;;;;;;;9.70;5.97;;;25.40;99.90;;;;;;5076031;28;20438;-87
2021/09/03 10:50:18;;;;;;;14.30;6.83;;;25.10;99.90;;;;;;5075372;28;20188;-87
2021/09/03 10:53:05;;;;;;;11.23;6.40;;;25.00;99.90;;;;;;5075602;28;20732;-86
2021/09/03 10:55:49;;;;;;;14.73;6.70;;;24.90;99.90;;;;;;5075212;28;20810;-86
2021/09/03 10:59:07;;;;;;;10.33;6.40;;;24.80;99.90;;;;;;5074704;28;20502;-90
2021/09/03 11:01:35;;;;;;;7.90;5.90;;;25.30;99.90;;;;;;5052711;28;20421;-87
2021/09/03 11:04:14;;;;;;;12.23;6.97;;;25.40;99.90;;;;;;5074136;28;20898;-87
2021/09/03 11:06:50;;;;;;;7.83;4.93;;;25.10;99.90;;;;;;5075693;28;20437;-87
2021/09/03 11:09:15;;;;;;;13.73;6.83;;;25.10;99.90;;;;;;5075767;28;20407;-87
2021/09/03 11:11:42;;;;;;;12.30;6.63;;;25.30;99.90;;;;;;5074090;28;20561;-86
2021/09/03 11:14:10;;;;;;;8.83;5.73;;;25.20;99.90;;;;;;5075687;28;20199;-85
2021/09/03 11:17:05;;;;;;;7.07;5.80;;;25.10;99.90;;;;;;5074301;28;20431;-86
2021/09/03 11:19:36;;;;;;;8.30;6.10;;;25.60;99.90;;;;;;5075195;28;20534;-87
2021/09/03 11:22:10;;;;;;;10.43;6.00;;;25.70;99.90;;;;;;5075480;28;20415;-88
2021/09/03 11:24:47;;;;;;;8.97;6.13;;;25.50;99.90;;;;;;5074090;28;20454;-87
2021/09/03 11:27:17;;;;;;;9.10;6.53;;;25.50;99.90;;;;;;5075289;28;20782;-87
2021/09/03 11:29:46;;;;;;;9.30;6.27;;;25.70;99.90;;;;;;5073986;28;20418;-86
2021/09/03 11:32:15;;;;;;;10.00;7.00;;;25.60;99.90;;;;;;5075008;28;20718;-86
2021/09/03 11:34:45;;;;;;;12.07;6.93;;;25.70;99.90;;;;;;5074879;28;20828;-88
2021/09/03 11:37:38;;;;;;;7.80;6.83;;;25.80;99.90;;;;;;5075130;28;20449;-86
2021/09/03 11:40:13;;;;;;;10.97;7.53;;;25.70;99.90;;;;;;5074235;28;20552;-87
2021/09/03 11:42:53;;;;;;;8.40;7.17;;;25.80;99.90;;;;;;5073429;28;20415;-89
2021/09/03 11:45:24;;;;;;;10.70;8.53;;;25.90;99.90;;;;;;5073781;28;20807;-87
2021/09/03 11:47:54;;;;;;;10.77;7.90;;;25.30;99.90;;;;;;5075092;28;20411;-88
2021/09/03 11:50:27;;;;;;;14.00;8.27;;;26.10;99.90;;;;;;5074660;28;20407;-89
2021/09/03 11:52:54;;;;;;;10.03;8.10;;;25.60;99.70;;;;;;5073685;28;20413;-88
2021/09/03 11:55:20;;;;;;;12.30;8.07;;;26.00;99.90;;;;;;5074824;28;20419;-87
2021/09/03 11:57:50;;;;;;;9.20;8.17;;;26.10;99.90;;;;;;5073402;28;20399;-87
2021/09/03 12:00:19;;;;;;;11.30;10.10;;;26.30;99.90;;;;;;5074954;28;20416;-86
2021/09/03 12:02:44;;;;;;;16.10;11.87;;;26.10;99.90;;;;;;5073548;28;20408;-86
2021/09/03 12:05:10;;;;;;;14.27;10.10;;;25.80;99.90;;;;;;5074224;28;20795;-88
2021/09/03 12:07:36;;;;;;;13.07;10.40;;;26.00;99.90;;;;;;5074615;28;20165;-88
2021/09/03 12:10:02;;;;;;;13.07;9.90;;;26.00;99.90;;;;;;5074490;28;20418;-86
2021/09/03 12:12:29;;;;;;;13.70;12.00;;;26.20;99.90;;;;;;5073164;28;20235;-88
2021/09/03 12:15:00;;;;;;;13.47;11.80;;;26.20;99.90;;;;;;5073277;28;20605;-88
2021/09/03 12:17:55;;;;;;;13.40;12.00;;;26.20;99.90;;;;;;5073307;28;20454;-86
2021/09/03 12:20:21;;;;;;;15.70;12.50;;;26.50;99.00;;;;;;5068285;28;20412;-87
2021/09/03 12:22:55;;;;;;;14.63;10.53;;;26.80;98.40;;;;;;5074326;28;20438;-87
2021/09/03 12:25:32;;;;;;;17.90;11.67;;;26.80;97.30;;;;;;5073052;28;20208;-88
2021/09/03 12:28:12;;;;;;;17.33;12.20;;;27.20;97.90;;;;;;5073082;28;20451;-88
2021/09/03 12:30:39;;;;;;;13.90;10.90;;;27.50;94.30;;;;;;5074291;28;20409;-87
2021/09/03 12:33:25;;;;;;;14.67;12.47;;;27.30;94.20;;;;;;5074186;28;20409;-88
2021/09/03 12:35:54;;;;;;;16.67;13.50;;;27.50;93.40;;;;;;5074102;28;20423;-87
2021/09/03 12:38:32;;;;;;;17.00;12.80;;;27.30;94.90;;;;;;5072767;28;20423;-88
2021/09/03 12:41:06;;;;;;;19.10;14.33;;;27.60;93.60;;;;;;5072838;28;20422;-86